Time;durP1;ratioP1;P1;durP2;ratioP2;P2;SDS_P1;SDS_P2;PMS_P1;PMS_P2;Temp;Humidity;BMP_temperature;BMP_pressure;BME280_temperature;BME280_humidity;BME280_pressure;Samples;Min_cycle;Max_cycle;Signal;HPM_P1;HPM_P2
2022/07/12 00:00:28;;;;;;;3.75;3.42;;;;;;;15.65;85.26;100560.70;1750502;82;20931;-88
2022/07/12 00:02:55;;;;;;;2.95;2.67;;;;;;;15.66;85.40;100565.05;1750639;80;20923;-89
2022/07/12 00:05:22;;;;;;;5.15;2.75;;;;;;;15.68;85.13;100567.91;1750476;82;20857;-89
2022/07/12 00:07:49;;;;;;;6.00;2.67;;;;;;;15.69;85.05;100570.06;1750540;82;22626;-88
2022/07/12 00:10:18;;;;;;;3.33;2.45;;;;;;;15.70;85.31;100577.05;1750358;82;20995;-88
2022/07/12 00:12:46;;;;;;;3.50;2.58;;;;;;;15.70;85.31;100577.05;1750503;82;20894;-89
2022/07/12 00:15:13;;;;;;;3.60;2.70;;;;;;;15.72;85.76;100572.02;1750525;82;20865;-89
2022/07/12 00:17:40;;;;;;;4.25;2.75;;;;;;;15.76;86.04;100581.84;1750648;82;21568;-89
2022/07/12 00:20:08;;;;;;;4.58;2.52;;;;;;;15.76;85.84;100581.84;1750606;82;21829;-88
2022/07/12 00:22:35;;;;;;;5.83;3.30;;;;;;;15.75;84.70;100574.40;1750431;82;20877;-90
2022/07/12 00:25:02;;;;;;;5.47;3.00;;;;;;;15.75;84.70;100574.40;1750555;82;20896;-89
2022/07/12 00:27:28;;;;;;;3.72;2.77;;;;;;;15.75;84.96;100576.20;1750520;80;20983;-88
2022/07/12 00:29:55;;;;;;;6.67;2.87;;;;;;;15.75;84.94;100578.85;1750466;80;21346;-88
2022/07/12 00:32:22;;;;;;;5.50;2.55;;;;;;;15.74;84.75;100579.34;1750681;80;21270;-89
2022/07/12 00:34:49;;;;;;;11.22;3.80;;;;;;;15.72;84.80;100583.91;1750777;82;20979;-89
2022/07/12 00:37:16;;;;;;;10.55;3.02;;;;;;;15.71;84.54;100584.03;1751125;82;21366;-88
2022/07/12 00:39:43;;;;;;;6.10;2.55;;;;;;;15.69;84.27;100582.80;1751007;82;21027;-89
2022/07/12 00:42:10;;;;;;;3.83;2.98;;;;;;;15.68;83.89;100589.55;1750700;81;20948;-89
2022/07/12 00:44:37;;;;;;;3.47;2.37;;;;;;;15.67;83.49;100591.82;1750467;80;21224;-89
2022/07/12 00:47:06;;;;;;;3.92;2.62;;;;;;;15.66;83.16;100590.16;1749237;80;20888;-89
2022/07/12 00:49:33;;;;;;;5.10;3.00;;;;;;;15.64;82.86;100588.95;1736524;82;20980;-89
2022/07/12 00:52:01;;;;;;;9.33;3.00;;;;;;;15.62;82.81;100596.66;1736556;82;20905;-90
2022/07/12 00:54:28;;;;;;;7.30;2.95;;;;;;;15.60;82.71;100599.41;1736819;82;20928;-88
2022/07/12 00:56:55;;;;;;;8.18;3.27;;;;;;;15.58;82.56;100603.98;1740415;82;21180;-88
2022/07/12 00:59:22;;;;;;;4.35;2.85;;;;;;;15.56;82.46;100608.55;1736607;82;20885;-87
2022/07/12 01:01:50;;;;;;;5.37;2.87;;;;;;;15.53;82.58;100608.81;1736564;82;20925;-87
2022/07/12 01:04:18;;;;;;;2.62;2.37;;;;;;;15.50;82.65;100605.94;1736589;82;20956;-89
2022/07/12 01:06:45;;;;;;;7.55;2.55;;;;;;;15.48;82.93;100613.16;1736487;82;20917;-89
2022/07/12 01:09:12;;;;;;;6.12;3.00;;;;;;;15.47;83.05;100611.94;1736715;81;21375;-88
2022/07/12 01:11:39;;;;;;;5.95;2.52;;;;;;;15.46;83.03;100612.92;1736624;82;21402;-89
2022/07/12 01:14:06;;;;;;;8.03;3.05;;;;;;;15.45;83.00;100616.52;1736541;82;20957;-87
2022/07/12 01:16:34;;;;;;;4.15;2.50;;;;;;;15.44;82.97;100614.84;1736618;82;20882;-88
2022/07/12 01:19:01;;;;;;;5.03;2.50;;;;;;;15.41;83.12;100615.94;1736774;82;20909;-89
2022/07/12 01:21:28;;;;;;;2.85;2.30;;;;;;;15.39;83.26;100623.15;1738619;80;21201;-88
2022/07/12 01:23:55;;;;;;;3.72;2.42;;;;;;;15.36;83.32;100622.55;1717843;81;20890;-87
2022/07/12 01:26:22;;;;;;;3.45;2.50;;;;;;;15.35;83.73;100621.70;1737377;82;20865;-86
2022/07/12 01:28:50;;;;;;;6.95;2.92;;;;;;;15.35;83.81;100624.35;1737311;82;20940;-87
2022/07/12 01:31:19;;;;;;;7.65;3.08;;;;;;;15.32;83.77;100629.41;1736853;82;20979;-88
2022/07/12 01:33:45;;;;;;;8.50;3.77;;;;;;;15.33;84.00;100632.88;1736858;82;21115;-88
2022/07/12 01:36:13;;;;;;;5.70;2.75;;;;;;;15.33;84.00;100632.88;1737057;82;21427;-89
2022/07/12 01:38:39;;;;;;;3.20;2.50;;;;;;;15.33;83.76;100635.52;1737460;82;20988;-88
2022/07/12 01:41:06;;;;;;;8.68;2.52;;;;;;;15.31;83.76;100640.92;1715744;82;20892;-88
2022/07/12 01:43:35;;;;;;;4.53;2.90;;;;;;;15.31;83.75;100640.09;1737417;82;21410;-87
2022/07/12 01:46:01;;;;;;;8.65;2.92;;;;;;;15.33;83.54;100648.24;1737580;82;21450;-88
2022/07/12 01:48:28;;;;;;;4.00;2.85;;;;;;;15.33;83.54;100648.24;1741025;81;20975;-89
2022/07/12 01:50:55;;;;;;;3.15;2.85;;;;;;;15.32;83.26;100640.46;1744742;81;20888;-88
2022/07/12 01:53:22;;;;;;;4.70;2.95;;;;;;;15.32;83.26;100640.46;1715665;82;20901;-88
2022/07/12 01:55:49;;;;;;;4.40;2.75;;;;;;;15.33;82.74;100654.02;1744822;82;20936;-88
2022/07/12 01:58:16;;;;;;;5.25;2.90;;;;;;;15.30;82.47;100646.34;1744691;81;21222;-88
2022/07/12 02:02:20;;;;;;;4.70;2.87;;;;;;;15.30;82.45;100647.67;1855191;77;22767;-89
2022/07/12 02:04:48;;;;;;;4.00;3.08;;;;;;;15.22;82.42;100653.54;1822764;78;20919;-89
2022/07/12 02:07:17;;;;;;;4.92;2.62;;;;;;;15.20;82.41;100655.47;1822653;78;21093;-87
2022/07/12 02:09:43;;;;;;;4.45;2.80;;;;;;;15.18;82.55;100656.06;1822573;78;20908;-87
2022/07/12 02:12:11;;;;;;;7.70;2.77;;;;;;;15.15;82.55;100659.45;1822854;78;20891;-84
2022/07/12 02:14:38;;;;;;;5.87;2.52;;;;;;;15.13;82.48;100668.31;1822639;78;20924;-88
2022/07/12 02:17:07;;;;;;;2.65;2.33;;;;;;;15.11;82.61;100664.11;1822755;78;20875;-89
2022/07/12 02:19:36;;;;;;;8.45;2.77;;;;;;;15.07;82.57;100670.14;1822674;78;21117;-87
2022/07/12 02:22:03;;;;;;;3.47;2.87;;;;;;;15.06;82.56;100669.76;1822652;78;20863;-88
2022/07/12 02:24:30;;;;;;;7.92;3.12;;;;;;;15.03;82.64;100673.11;1822674;78;20967;-88
2022/07/12 02:26:58;;;;;;;5.33;3.05;;;;;;;15.03;82.67;100679.25;1822480;78;20974;-88
2022/07/12 02:29:26;;;;;;;9.78;3.40;;;;;;;15.03;82.74;100673.11;1822621;78;21364;-87
2022/07/12 02:31:53;;;;;;;5.30;3.83;;;;;;;15.03;82.75;100674.43;1822630;78;21238;-86
2022/07/12 02:34:20;;;;;;;8.65;3.40;;;;;;;15.03;82.73;100673.97;1822553;78;21010;-87
2022/07/12 02:36:47;;;;;;;7.60;2.95;;;;;;;15.05;82.60;100676.47;1823507;78;21319;-87
2022/07/12 02:39:15;;;;;;;4.33;2.67;;;;;;;15.06;82.42;100676.36;1822759;78;21515;-89
2022/07/12 02:41:42;;;;;;;4.50;2.70;;;;;;;15.08;82.38;100682.86;1822494;78;21377;-87
2022/07/12 02:44:09;;;;;;;2.67;2.47;;;;;;;15.09;82.36;100684.52;1822727;78;21235;-88
2022/07/12 02:46:37;;;;;;;3.12;2.80;;;;;;;15.10;82.27;100688.37;1822474;78;20993;-88
2022/07/12 02:49:04;;;;;;;4.33;2.50;;;;;;;15.12;82.24;100684.30;1822540;78;20903;-88
2022/07/12 02:51:31;;;;;;;3.85;2.45;;;;;;;15.13;82.20;100689.94;1822894;78;20907;-87
2022/07/12 02:53:59;;;;;;;5.08;2.67;;;;;;;15.13;82.21;100689.94;1822644;78;20967;-89
2022/07/12 02:56:27;;;;;;;3.90;3.50;;;;;;;15.15;82.25;100699.07;1822577;78;21143;-88
2022/07/12 02:58:55;;;;;;;8.60;3.90;;;;;;;15.16;82.37;100698.09;1822624;78;21314;-87
2022/07/12 03:01:22;;;;;;;6.83;2.75;;;;;;;15.15;82.40;100695.94;1824184;77;20899;-88
2022/07/12 03:03:49;;;;;;;5.35;2.85;;;;;;;15.15;82.47;100709.15;1826354;77;20970;-88
2022/07/12 03:06:16;;;;;;;4.58;3.22;;;;;;;15.17;82.56;100707.23;1826400;78;21412;-89
2022/07/12 03:08:44;;;;;;;4.20;3.22;;;;;;;15.17;82.60;100712.52;1826472;77;21252;-87
2022/07/12 03:11:10;;;;;;;6.15;3.30;;;;;;;15.20;82.86;100710.11;1826119;77;20919;-88
2022/07/12 03:13:38;;;;;;;3.37;3.05;;;;;;;15.20;82.86;100710.11;1825546;78;20955;-87
2022/07/12 03:16:07;;;;;;;4.58;3.65;;;;;;;15.21;82.94;100710.00;1825488;77;21655;-88
2022/07/12 03:18:34;;;;;;;3.58;3.27;;;;;;;15.22;83.03;100714.31;1825292;78;20895;-88
2022/07/12 03:21:01;;;;;;;4.05;3.58;;;;;;;15.30;83.36;100720.33;1825543;78;21207;-87
2022/07/12 03:23:28;;;;;;;4.87;2.85;;;;;;;15.30;83.36;100720.33;1825588;78;20840;-89
2022/07/12 03:25:57;;;;;;;4.60;3.30;;;;;;;15.37;82.92;100724.66;1825530;77;20962;-89
2022/07/12 03:28:25;;;;;;;4.97;3.27;;;;;;;15.37;82.92;100724.66;1825314;78;20931;-88
2022/07/12 03:30:52;;;;;;;4.28;3.47;;;;;;;15.39;82.85;100716.13;1825448;77;21357;-89
2022/07/12 03:33:21;;;;;;;4.15;3.20;;;;;;;15.43;82.77;100721.50;1825669;78;21388;-88
2022/07/12 03:35:49;;;;;;;3.60;3.30;;;;;;;15.48;82.55;100723.33;1798237;78;20930;-87
2022/07/12 03:38:16;;;;;;;7.15;4.20;;;;;;;15.51;82.59;100723.91;1825688;78;20994;-88
2022/07/12 03:40:43;;;;;;;3.70;3.40;;;;;;;15.57;82.35;100721.27;1825778;78;21405;-88
2022/07/12 03:43:12;;;;;;;4.33;3.25;;;;;;;15.62;82.09;100727.52;1826265;78;20875;-87
2022/07/12 03:45:40;;;;;;;6.25;3.02;;;;;;;15.66;81.93;100731.59;1825685;77;21444;-87
2022/07/12 03:48:07;;;;;;;4.65;2.90;;;;;;;15.69;81.94;100733.49;1825338;78;21469;-87
2022/07/12 03:50:35;;;;;;;3.52;2.92;;;;;;;15.74;81.86;100738.48;1825409;78;21006;-87
2022/07/12 03:53:02;;;;;;;4.72;3.30;;;;;;;15.81;81.86;100744.09;1825291;78;20927;-89
2022/07/12 03:55:29;;;;;;;5.83;3.45;;;;;;;15.92;81.27;100742.77;1825346;78;20891;-89
2022/07/12 03:57:56;;;;;;;2.98;2.77;;;;;;;15.92;81.27;100742.77;1825416;78;21507;-89
2022/07/12 04:00:23;;;;;;;3.27;2.92;;;;;;;15.97;81.50;100740.59;1825206;77;20872;-89
2022/07/12 04:02:49;;;;;;;4.00;3.60;;;;;;;16.03;81.11;100741.87;1821899;78;20927;-89
2022/07/12 04:05:16;;;;;;;5.50;3.30;;;;;;;16.07;80.54;100741.50;1821918;78;20975;-89
2022/07/12 04:07:45;;;;;;;4.37;2.62;;;;;;;16.16;80.25;100748.72;1821730;78;20852;-89
2022/07/12 04:10:12;;;;;;;4.30;2.83;;;;;;;16.26;80.01;100749.28;1822092;78;21068;-88
2022/07/12 04:12:39;;;;;;;4.95;2.72;;;;;;;16.34;79.36;100750.34;1821895;78;20919;-89
2022/07/12 04:15:07;;;;;;;4.70;2.60;;;;;;;16.46;79.12;100752.45;1822022;78;20829;-89
2022/07/12 04:17:34;;;;;;;2.62;2.42;;;;;;;16.60;78.55;100758.41;1822177;78;20884;-89
2022/07/12 04:20:01;;;;;;;3.30;2.92;;;;;;;16.77;77.75;100763.97;1822141;78;20943;-90
2022/07/12 04:22:28;;;;;;;4.35;3.52;;;;;;;16.95;77.34;100764.26;1821993;78;21885;-88
2022/07/12 04:24:55;;;;;;;5.22;3.22;;;;;;;17.18;77.18;100763.61;1822058;78;21373;-90
2022/07/12 04:27:23;;;;;;;8.18;3.65;;;;;;;17.61;76.83;100776.33;1822284;78;20896;-90
2022/07/12 04:29:50;;;;;;;4.35;3.58;;;;;;;18.22;75.26;100778.03;1822267;78;21441;-89
2022/07/12 04:32:18;;;;;;;4.40;3.33;;;;;;;18.86;73.25;100773.19;1822402;78;21002;-88
2022/07/12 04:34:45;;;;;;;5.17;3.30;;;;;;;19.54;71.09;100780.48;1822349;78;22026;-89
2022/07/12 04:37:12;;;;;;;4.62;3.08;;;;;;;20.17;68.88;100785.57;1823253;78;20868;-89
2022/07/12 04:39:41;;;;;;;4.03;3.33;;;;;;;20.75;66.61;100781.64;1824713;78;20954;-88
2022/07/12 04:42:08;;;;;;;5.72;3.50;;;;;;;21.29;64.71;100785.83;1824814;78;20919;-90
2022/07/12 04:44:36;;;;;;;4.85;3.22;;;;;;;21.83;62.94;100787.45;1791732;78;20959;-89
2022/07/12 04:47:03;;;;;;;4.75;3.15;;;;;;;22.37;61.10;100789.30;1824028;78;21168;-89
2022/07/12 04:49:33;;;;;;;7.65;2.60;;;;;;;22.85;59.16;100789.48;1819591;78;20918;-88
2022/07/12 04:52:00;;;;;;;6.22;2.42;;;;;;;23.28;57.29;100783.45;1822500;78;20875;-90
2022/07/12 04:54:27;;;;;;;4.72;2.58;;;;;;;23.70;55.73;100780.93;1821963;78;21488;-86
2022/07/12 04:56:54;;;;;;;4.70;2.80;;;;;;;24.09;54.75;100792.17;1821659;78;20918;-90
2022/07/12 04:59:21;;;;;;;3.47;2.40;;;;;;;24.48;53.73;100787.23;1821788;78;21215;-88
2022/07/12 05:01:48;;;;;;;6.75;1.98;;;;;;;24.89;52.56;100797.13;1821785;78;20915;-88
2022/07/12 05:04:14;;;;;;;3.00;2.55;;;;;;;25.29;51.69;100795.61;1822103;78;20877;-90
2022/07/12 05:06:42;;;;;;;3.72;2.35;;;;;;;25.66;50.14;100794.68;1821909;78;21333;-90
2022/07/12 05:09:09;;;;;;;2.37;2.12;;;;;;;26.01;48.86;100800.28;1822011;78;20880;-89
2022/07/12 05:11:37;;;;;;;4.25;2.10;;;;;;;26.32;47.82;100805.38;1822073;78;21279;-90
2022/07/12 05:14:04;;;;;;;1.92;1.55;;;;;;;26.57;46.52;100798.31;1821644;78;20836;-88
2022/07/12 05:16:32;;;;;;;5.22;1.85;;;;;;;26.80;46.32;100807.53;1821557;78;20853;-89
2022/07/12 05:19:01;;;;;;;3.25;1.90;;;;;;;27.06;45.84;100801.02;1821635;78;20966;-88
2022/07/12 05:21:28;;;;;;;3.77;1.27;;;;;;;27.36;45.44;100796.77;1821608;78;21436;-88
2022/07/12 05:23:54;;;;;;;4.97;2.12;;;;;;;27.61;44.68;100801.15;1821997;78;21121;-89
2022/07/12 05:26:21;;;;;;;1.92;1.70;;;;;;;27.84;43.87;100803.58;1821843;78;20951;-90
2022/07/12 05:28:48;;;;;;;3.52;2.30;;;;;;;28.08;43.38;100802.22;1821565;78;20963;-88
2022/07/12 05:31:15;;;;;;;2.52;2.33;;;;;;;28.33;42.92;100804.34;1821668;78;21088;-89
2022/07/12 05:33:42;;;;;;;2.50;1.90;;;;;;;28.56;42.57;100803.16;1821905;78;20879;-89
2022/07/12 05:36:10;;;;;;;4.55;2.17;;;;;;;28.84;42.12;100804.33;1821920;78;21048;-89
2022/07/12 05:38:37;;;;;;;3.00;1.75;;;;;;;29.10;41.60;100802.13;1821739;78;21029;-90
2022/07/12 05:41:04;;;;;;;2.25;1.87;;;;;;;29.32;41.12;100808.95;1821961;78;20899;-89
2022/07/12 05:43:32;;;;;;;2.10;1.87;;;;;;;29.45;40.53;100804.04;1821976;78;20852;-88
2022/07/12 05:45:59;;;;;;;3.25;1.82;;;;;;;29.57;40.05;100813.69;1822617;78;20963;-87
2022/07/12 05:48:27;;;;;;;3.62;1.37;;;;;;;29.70;39.42;100809.63;1823615;78;21314;-89
2022/07/12 05:50:53;;;;;;;1.90;1.70;;;;;;;29.78;39.00;100803.66;1823567;78;20864;-89
2022/07/12 05:53:23;;;;;;;2.47;1.98;;;;;;;29.84;38.81;100806.86;1822647;78;21012;-90
2022/07/12 05:55:51;;;;;;;3.77;1.90;;;;;;;29.99;38.60;100812.80;1822340;78;20975;-89
2022/07/12 05:58:18;;;;;;;2.87;1.50;;;;;;;30.12;38.65;100808.67;1822181;78;21400;-90
2022/07/12 06:00:46;;;;;;;3.75;1.75;;;;;;;30.27;38.05;100811.13;1822167;78;21357;-90
2022/07/12 06:03:14;;;;;;;9.18;1.80;;;;;;;30.45;37.56;100813.09;1825290;77;20887;-88
2022/07/12 06:05:41;;;;;;;2.60;1.55;;;;;;;30.64;37.11;100813.15;1825739;78;20833;-90
2022/07/12 06:08:08;;;;;;;1.82;1.60;;;;;;;30.78;36.54;100806.06;1797884;78;20994;-90
2022/07/12 06:10:35;;;;;;;4.22;1.50;;;;;;;30.98;36.24;100805.09;1825633;78;20880;-90
2022/07/12 06:13:02;;;;;;;4.17;1.65;;;;;;;31.16;36.29;100808.36;1825679;78;21318;-89
2022/07/12 06:15:29;;;;;;;2.05;1.52;;;;;;;31.36;35.87;100802.73;1798433;78;20927;-90
2022/07/12 06:17:57;;;;;;;1.77;1.67;;;;;;;31.58;35.32;100801.79;1825697;78;21005;-90
2022/07/12 06:20:25;;;;;;;2.45;1.72;;;;;;;31.76;34.37;100800.94;1825629;77;20899;-90
2022/07/12 06:22:52;;;;;;;2.87;2.17;;;;;;;31.89;34.58;100803.48;1825925;78;20915;-90
2022/07/12 06:25:19;;;;;;;4.05;2.10;;;;;;;31.97;34.79;100807.27;1825517;77;21236;-90
2022/07/12 06:27:46;;;;;;;2.98;2.00;;;;;;;32.08;34.31;100804.82;1825747;77;20914;-91
2022/07/12 06:30:17;;;;;;;3.50;1.50;;;;;;;32.21;34.35;100802.73;1825514;77;20867;-89
2022/07/12 06:32:46;;;;;;;8.90;2.08;;;;;;;32.33;33.98;100802.80;1825844;78;20973;-90
2022/07/12 06:35:14;;;;;;;33.83;4.75;;;;;;;32.34;33.07;100803.08;1825904;78;21104;-90
2022/07/12 06:37:41;;;;;;;27.13;3.37;;;;;;;32.37;32.85;100800.42;1825685;78;21122;-90
2022/07/12 06:40:11;;;;;;;5.10;1.80;;;;;;;32.48;32.81;100806.95;1825614;77;21480;-90
2022/07/12 06:42:38;;;;;;;2.37;1.12;;;;;;;32.57;32.29;100798.28;1825598;77;20942;-90
2022/07/12 06:45:06;;;;;;;3.33;1.15;;;;;;;32.70;31.72;100800.47;1825397;77;20864;-89
2022/07/12 06:47:33;;;;;;;1.22;1.10;;;;;;;32.83;31.83;100805.14;1826672;77;21325;-90
2022/07/12 06:50:03;;;;;;;20.30;4.97;;;;;;;32.98;31.65;100807.39;1826168;78;21231;-91
2022/07/12 06:52:31;;;;;;;5.22;2.40;;;;;;;33.10;31.53;100811.49;1825993;78;20970;-91
2022/07/12 06:54:58;;;;;;;3.65;1.70;;;;;;;33.14;31.26;100805.88;1826018;78;21045;-91
2022/07/12 06:57:26;;;;;;;10.70;1.70;;;;;;;33.12;31.81;100806.65;1825980;77;20895;-90
2022/07/12 06:59:53;;;;;;;7.08;2.00;;;;;;;33.09;31.29;100803.06;1826143;78;20914;-89
2022/07/12 07:02:20;;;;;;;3.33;1.77;;;;;;;33.14;30.96;100797.73;1826018;78;21124;-90
2022/07/12 07:04:48;;;;;;;1.92;1.22;;;;;;;33.27;31.59;100799.92;1825752;78;20954;-88
2022/07/12 07:07:15;;;;;;;3.05;1.00;;;;;;;33.34;30.97;100799.25;1825765;78;20880;-90
2022/07/12 07:09:42;;;;;;;10.98;2.00;;;;;;;33.33;30.56;100804.38;1826011;78;21346;-90
2022/07/12 07:12:09;;;;;;;4.25;1.37;;;;;;;33.35;30.15;100804.97;1825909;78;21337;-90
2022/07/12 07:14:36;;;;;;;5.45;1.37;;;;;;;33.36;30.22;100807.45;1825871;78;21122;-91
2022/07/12 07:17:05;;;;;;;4.95;1.25;;;;;;;33.47;30.04;100800.89;1825663;78;20919;-90
2022/07/12 07:19:32;;;;;;;3.02;1.00;;;;;;;33.51;29.56;100802.88;1825687;78;20879;-91
2022/07/12 07:22:01;;;;;;;2.17;1.17;;;;;;;33.63;29.83;100800.98;1825788;78;20927;-90
2022/07/12 07:24:29;;;;;;;2.25;0.60;;;;;;;33.74;29.90;100803.92;1826090;78;20950;-90
2022/07/12 07:26:56;;;;;;;2.75;0.70;;;;;;;33.83;29.33;100807.91;1826157;78;21278;-90
2022/07/12 07:32:08;;;;;;;2.15;0.90;;;;;;;33.84;28.19;100802.23;1826799;78;20970;-91
2022/07/12 07:34:36;;;;;;;2.05;1.00;;;;;;;33.85;27.40;100803.86;1826598;78;20851;-90
2022/07/12 07:37:03;;;;;;;1.95;0.70;;;;;;;33.78;27.39;100805.91;1827871;78;20938;-89
2022/07/12 07:39:30;;;;;;;2.20;0.93;;;;;;;33.78;28.04;100809.98;1827659;78;21231;-90
2022/07/12 07:41:57;;;;;;;2.62;1.00;;;;;;;33.82;28.33;100803.00;1826513;78;20970;-91
2022/07/12 07:44:24;;;;;;;2.47;0.88;;;;;;;33.95;28.35;100802.41;1825703;78;21530;-90
2022/07/12 07:46:51;;;;;;;1.52;0.65;;;;;;;33.99;28.69;100819.36;1825474;78;20955;-90
2022/07/12 07:49:20;;;;;;;3.85;1.30;;;;;;;34.03;28.07;100803.38;1825976;78;20942;-90
2022/07/12 07:51:47;;;;;;;4.20;1.17;;;;;;;34.11;27.43;100816.64;1825889;78;21259;-90
2022/07/12 07:54:14;;;;;;;1.02;0.75;;;;;;;34.10;27.81;100808.14;1825742;78;20856;-90
2022/07/12 07:56:41;;;;;;;4.05;0.90;;;;;;;34.17;27.55;100810.20;1825710;78;20923;-90
2022/07/12 07:59:08;;;;;;;0.70;0.70;;;;;;;34.18;27.53;100810.51;1825765;78;20943;-92
2022/07/12 08:01:45;;;;;;;3.20;0.90;;;;;;;34.25;27.42;100813.08;1825962;78;20856;-91
2022/07/12 08:04:18;;;;;;;1.17;0.82;;;;;;;34.42;27.67;100813.11;1825680;78;21143;-89
2022/07/12 08:06:45;;;;;;;1.62;1.12;;;;;;;34.57;27.81;100817.43;1825763;78;20844;-90
2022/07/12 08:09:13;;;;;;;1.70;0.98;;;;;;;34.51;27.82;100815.72;1826568;78;20907;-90
2022/07/12 08:11:41;;;;;;;8.00;1.37;;;;;;;34.53;27.48;100824.98;1825711;78;22006;-91
2022/07/12 08:14:07;;;;;;;4.08;0.75;;;;;;;34.55;26.97;100823.69;1827031;78;20891;-91
2022/07/12 08:16:36;;;;;;;9.18;2.00;;;;;;;34.57;26.58;100813.34;1827369;78;21233;-90
2022/07/12 08:19:04;;;;;;;3.15;1.00;;;;;;;34.66;26.62;100816.00;1827025;78;21010;-92
2022/07/12 08:21:30;;;;;;;1.07;0.78;;;;;;;34.66;26.79;100821.45;1827105;78;20923;-91
2022/07/12 08:23:58;;;;;;;3.37;0.70;;;;;;;34.45;27.04;100824.32;1826197;78;21012;-91
2022/07/12 08:26:25;;;;;;;2.12;0.75;;;;;;;34.15;26.49;100830.58;1826234;78;20860;-91
2022/07/12 08:28:53;;;;;;;1.25;0.80;;;;;;;33.77;26.64;100833.34;1827121;78;21254;-90
2022/07/12 08:31:20;;;;;;;0.80;0.70;;;;;;;33.50;27.38;100829.77;1827230;78;20923;-91
2022/07/12 08:33:47;;;;;;;0.88;0.40;;;;;;;33.51;27.65;100826.55;1825928;78;20947;-92
2022/07/12 08:36:15;;;;;;;3.10;0.57;;;;;;;33.59;27.77;100828.36;1826225;77;20892;-93
2022/07/12 08:38:44;;;;;;;3.25;1.02;;;;;;;33.61;27.45;100833.03;1825872;78;20918;-92
2022/07/12 08:41:13;;;;;;;2.45;0.68;;;;;;;33.41;27.41;100834.75;1826234;78;21193;-91
2022/07/12 08:43:41;;;;;;;1.80;1.70;;;;;;;33.21;27.52;100836.48;1826696;78;20828;-90
2022/07/12 08:46:12;;;;;;;4.62;2.22;;;;;;;33.18;28.00;100838.33;1826786;78;21033;-92
2022/07/12 08:48:40;;;;;;;9.88;2.08;;;;;;;33.11;27.80;100844.42;1827667;78;20923;-89
2022/07/12 08:51:12;;;;;;;3.67;3.33;;;;;;;33.15;28.01;100836.60;1828202;78;20931;-91
2022/07/12 08:53:39;;;;;;;1.60;0.70;;;;;;;33.27;27.15;100844.77;1826804;78;21350;-90
2022/07/12 08:56:07;;;;;;;1.90;0.75;;;;;;;33.52;27.49;100841.24;1826813;78;20859;-92
2022/07/12 08:58:34;;;;;;;1.85;0.60;;;;;;;33.58;27.49;100845.76;1826561;78;20887;-91
2022/07/12 09:01:02;;;;;;;1.32;0.93;;;;;;;33.72;26.99;100839.52;1826417;78;20971;-91
2022/07/12 09:03:29;;;;;;;0.78;0.47;;;;;;;33.43;27.12;100836.70;1826410;78;20915;-92
2022/07/12 09:05:57;;;;;;;4.97;0.80;;;;;;;33.32;26.90;100836.18;1826906;78;21357;-91
2022/07/12 09:08:32;;;;;;;0.55;0.50;;;;;;;33.08;26.53;100837.26;1826469;78;21283;-92
2022/07/12 09:11:02;;;;;;;2.12;0.82;;;;;;;32.72;26.90;100836.38;1826748;77;20896;-92
2022/07/12 09:13:54;;;;;;;0.88;0.50;;;;;;;32.40;27.54;100845.59;1826216;78;20899;-92
2022/07/12 09:16:23;;;;;;;3.08;0.93;;;;;;;32.37;27.79;100839.79;1826347;78;20969;-91
2022/07/12 09:18:50;;;;;;;1.40;0.60;;;;;;;32.22;27.69;100834.80;1826401;78;21244;-94
2022/07/12 09:21:26;;;;;;;0.65;0.62;;;;;;;32.05;27.99;100842.74;1826007;78;20931;-95
2022/07/12 09:23:56;;;;;;;1.72;0.53;;;;;;;32.05;28.59;100845.99;1822923;78;20921;-92
2022/07/12 09:26:24;;;;;;;1.05;0.72;;;;;;;31.85;28.77;100837.55;1826407;78;20883;-92
2022/07/12 09:28:51;;;;;;;1.65;0.82;;;;;;;31.77;28.98;100848.19;1826864;78;20896;-92
2022/07/12 09:31:20;;;;;;;0.75;0.65;;;;;;;31.80;29.40;100845.01;1826371;78;21135;-92
2022/07/12 09:36:41;;;;;;;3.08;0.70;;;;;;;31.90;29.23;100836.86;1773559;78;20930;-93
2022/07/12 09:39:07;;;;;;;1.25;0.60;;;;;;;31.78;28.81;100843.58;1826388;78;21468;-93
2022/07/12 09:41:35;;;;;;;3.80;0.70;;;;;;;31.78;29.00;100841.69;1826381;78;20879;-91
2022/07/12 09:44:02;;;;;;;1.55;0.60;;;;;;;31.87;28.85;100842.75;1826659;78;22173;-91
2022/07/12 09:46:29;;;;;;;3.50;0.60;;;;;;;32.05;28.54;100838.67;1826267;78;20962;-92
2022/07/12 09:48:58;;;;;;;1.98;0.72;;;;;;;31.97;28.07;100842.55;1825599;78;21456;-92
2022/07/12 09:51:24;;;;;;;2.60;0.40;;;;;;;31.79;28.40;100844.72;1825673;78;20888;-91
2022/07/12 09:53:53;;;;;;;1.25;0.60;;;;;;;31.72;28.60;100842.59;1825860;78;20950;-91
2022/07/12 09:56:20;;;;;;;1.57;0.50;;;;;;;31.75;28.63;100836.73;1825810;78;21279;-92
2022/07/12 09:58:53;;;;;;;2.10;0.60;;;;;;;31.93;28.76;100839.13;1825723;78;20946;-91
2022/07/12 10:01:20;;;;;;;;;;;;;;;32.19;28.53;100839.31;1828904;78;20919;-92
2022/07/12 10:03:50;;;;;;;3.85;0.98;;;;;;;32.47;27.78;100838.70;1825562;78;20172;-91
2022/07/12 10:06:25;;;;;;;3.15;0.75;;;;;;;32.74;27.54;100846.47;1824401;78;20876;-90
2022/07/12 10:08:53;;;;;;;3.52;0.50;;;;;;;32.63;27.31;100847.56;1823749;77;21224;-89
2022/07/12 10:11:21;;;;;;;2.35;0.70;;;;;;;32.62;27.85;100848.64;1824246;78;20860;-90
2022/07/12 10:13:48;;;;;;;2.33;1.07;;;;;;;32.61;27.51;100850.22;1823098;78;20911;-91
2022/07/12 10:16:16;;;;;;;1.12;0.55;;;;;;;32.72;27.85;100844.52;1822669;78;20899;-90
2022/07/12 10:18:43;;;;;;;3.47;0.60;;;;;;;32.68;27.47;100846.05;1823140;78;20871;-90
2022/07/12 10:21:19;;;;;;;4.65;1.20;;;;;;;32.47;27.24;100840.60;1822380;78;21107;-91
2022/07/12 10:23:46;;;;;;;21.23;2.80;;;;;;;32.24;27.65;100840.83;1822591;78;20998;-89
2022/07/12 10:26:26;;;;;;;4.95;1.35;;;;;;;32.10;28.27;100838.80;1822656;78;21469;-91
2022/07/12 10:29:01;;;;;;;0.60;0.53;;;;;;;32.18;28.51;100846.63;1822562;78;20919;-89
2022/07/12 10:31:34;;;;;;;1.52;0.75;;;;;;;32.14;27.88;100835.94;1792280;78;20974;-90
2022/07/12 10:34:24;;;;;;;12.95;1.60;;;;;;;32.33;27.94;100838.08;1822697;78;21147;-91
2022/07/12 10:37:02;;;;;;;2.83;0.90;;;;;;;32.48;28.03;100830.84;1822402;78;20935;-92
2022/07/12 10:39:29;;;;;;;7.85;1.90;;;;;;;32.65;27.12;100840.55;1822595;78;20919;-92
2022/07/12 10:42:16;;;;;;;10.32;1.55;;;;;;;32.81;26.62;100837.68;1822865;77;20922;-93
2022/07/12 10:44:47;;;;;;;12.68;1.67;;;;;;;33.10;26.95;100837.85;1824020;78;20887;-91
2022/07/12 10:47:16;;;;;;;1.85;0.68;;;;;;;33.35;26.72;100833.52;1824524;77;21229;-92
2022/07/12 10:49:48;;;;;;;1.12;0.80;;;;;;;33.55;26.66;100836.70;1822558;78;20867;-91
2022/07/12 10:52:17;;;;;;;5.37;0.85;;;;;;;33.74;25.94;100826.50;1792599;78;20930;-92
2022/07/12 10:55:03;;;;;;;2.85;1.12;;;;;;;33.84;25.71;100834.88;1823820;78;20864;-90
2022/07/12 10:57:46;;;;;;;1.47;0.78;;;;;;;33.88;26.00;100835.75;1823471;78;20918;-92
2022/07/12 11:00:14;;;;;;;3.83;0.65;;;;;;;33.99;25.99;100827.53;1822760;78;21092;-92
2022/07/12 11:02:41;;;;;;;1.70;0.80;;;;;;;34.14;24.97;100831.66;1822477;78;20844;-92
2022/07/12 11:05:09;;;;;;;2.55;1.20;;;;;;;34.26;24.44;100827.81;1822584;78;20900;-94
2022/07/12 11:07:36;;;;;;;5.53;3.12;;;;;;;34.38;24.56;100822.30;1822511;78;21405;-92
2022/07/12 11:10:04;;;;;;;2.30;1.70;;;;;;;34.50;24.17;100826.30;1822536;78;21387;-92
2022/07/12 11:12:31;;;;;;;3.80;1.57;;;;;;;34.34;23.54;100826.58;1822649;78;21272;-92
2022/07/12 11:14:59;;;;;;;0.70;0.70;;;;;;;34.25;23.76;100824.79;1822394;78;20947;-93
2022/07/12 11:17:30;;;;;;;2.70;1.25;;;;;;;34.20;24.03;100817.90;1822678;78;20886;-90
2022/07/12 11:20:09;;;;;;;12.75;2.08;;;;;;;34.24;24.36;100826.38;1822462;78;21330;-91
2022/07/12 11:22:38;;;;;;;3.62;0.70;;;;;;;34.17;24.31;100824.35;1822841;78;20867;-90
2022/07/12 11:25:10;;;;;;;2.92;0.90;;;;;;;34.04;24.44;100820.02;1822808;78;21243;-91
2022/07/12 11:27:37;;;;;;;1.50;0.95;;;;;;;33.95;24.53;100826.89;1823339;78;20829;-91
2022/07/12 11:30:08;;;;;;;5.92;1.20;;;;;;;33.87;24.37;100827.30;1823345;78;20907;-89
2022/07/12 11:32:41;;;;;;;4.05;0.60;;;;;;;33.77;24.23;100817.02;1823051;78;20844;-90
2022/07/12 11:35:21;;;;;;;1.47;0.70;;;;;;;33.59;24.86;100826.18;1823282;78;20923;-90